sensor_id;sensor_type;location;lat;lon;timestamp;P1;durP1;ratioP1;P2;durP2;ratioP2
11342;SDS011;5726;42.160;24.746;2024-03-08T00:00:46;27.77;;;17.20;;
11342;SDS011;5726;42.160;24.746;2024-03-08T00:03:11;37.47;;;19.13;;
11342;SDS011;5726;42.160;24.746;2024-03-08T00:05:37;31.47;;;16.77;;
11342;SDS011;5726;42.160;24.746;2024-03-08T00:08:04;32.53;;;18.50;;
11342;SDS011;5726;42.160;24.746;2024-03-08T00:10:35;34.87;;;18.00;;
11342;SDS011;5726;42.160;24.746;2024-03-08T00:13:00;32.47;;;19.00;;
11342;SDS011;5726;42.160;24.746;2024-03-08T00:15:29;33.43;;;18.07;;
11342;SDS011;5726;42.160;24.746;2024-03-08T00:17:54;30.87;;;17.27;;
11342;SDS011;5726;42.160;24.746;2024-03-08T00:20:20;31.47;;;17.93;;
11342;SDS011;5726;42.160;24.746;2024-03-08T00:22:45;35.20;;;18.10;;
11342;SDS011;5726;42.160;24.746;2024-03-08T00:25:11;30.70;;;18.03;;
11342;SDS011;5726;42.160;24.746;2024-03-08T00:27:37;27.50;;;16.90;;
11342;SDS011;5726;42.160;24.746;2024-03-08T00:30:03;33.50;;;18.00;;
11342;SDS011;5726;42.160;24.746;2024-03-08T00:32:30;30.27;;;17.47;;
11342;SDS011;5726;42.160;24.746;2024-03-08T00:34:56;33.93;;;18.27;;
11342;SDS011;5726;42.160;24.746;2024-03-08T00:37:22;33.50;;;17.83;;
11342;SDS011;5726;42.160;24.746;2024-03-08T00:39:49;31.60;;;17.97;;
11342;SDS011;5726;42.160;24.746;2024-03-08T00:42:15;31.07;;;17.90;;
11342;SDS011;5726;42.160;24.746;2024-03-08T00:44:41;33.87;;;18.13;;
11342;SDS011;5726;42.160;24.746;2024-03-08T00:47:06;32.27;;;17.60;;
11342;SDS011;5726;42.160;24.746;2024-03-08T00:49:32;32.43;;;18.80;;
11342;SDS011;5726;42.160;24.746;2024-03-08T00:51:57;31.93;;;18.90;;
11342;SDS011;5726;42.160;24.746;2024-03-08T00:54:23;39.67;;;19.37;;
11342;SDS011;5726;42.160;24.746;2024-03-08T00:56:49;35.37;;;19.40;;
11342;SDS011;5726;42.160;24.746;2024-03-08T00:59:14;39.73;;;21.63;;
11342;SDS011;5726;42.160;24.746;2024-03-08T01:01:40;32.43;;;18.63;;
11342;SDS011;5726;42.160;24.746;2024-03-08T01:04:06;33.00;;;19.37;;
11342;SDS011;5726;42.160;24.746;2024-03-08T01:06:33;33.80;;;19.90;;
11342;SDS011;5726;42.160;24.746;2024-03-08T01:08:59;34.80;;;20.17;;
11342;SDS011;5726;42.160;24.746;2024-03-08T01:11:24;35.30;;;20.03;;
11342;SDS011;5726;42.160;24.746;2024-03-08T01:13:50;31.40;;;18.83;;
11342;SDS011;5726;42.160;24.746;2024-03-08T01:16:15;31.63;;;17.47;;
11342;SDS011;5726;42.160;24.746;2024-03-08T01:18:42;30.43;;;18.17;;
11342;SDS011;5726;42.160;24.746;2024-03-08T01:21:08;34.70;;;18.97;;
11342;SDS011;5726;42.160;24.746;2024-03-08T01:23:34;36.50;;;18.47;;
11342;SDS011;5726;42.160;24.746;2024-03-08T01:26:00;30.50;;;17.43;;
11342;SDS011;5726;42.160;24.746;2024-03-08T01:28:27;31.73;;;18.27;;
11342;SDS011;5726;42.160;24.746;2024-03-08T01:30:53;34.13;;;19.17;;
11342;SDS011;5726;42.160;24.746;2024-03-08T01:33:25;27.23;;;17.13;;
11342;SDS011;5726;42.160;24.746;2024-03-08T01:35:54;28.70;;;17.73;;
11342;SDS011;5726;42.160;24.746;2024-03-08T01:38:20;28.73;;;16.47;;
11342;SDS011;5726;42.160;24.746;2024-03-08T01:40:48;28.47;;;17.23;;
11342;SDS011;5726;42.160;24.746;2024-03-08T01:46:01;28.50;;;16.70;;
11342;SDS011;5726;42.160;24.746;2024-03-08T01:48:28;26.20;;;17.37;;
11342;SDS011;5726;42.160;24.746;2024-03-08T01:50:54;29.43;;;17.73;;
11342;SDS011;5726;42.160;24.746;2024-03-08T01:53:21;30.87;;;17.80;;
11342;SDS011;5726;42.160;24.746;2024-03-08T01:55:48;31.33;;;17.90;;
11342;SDS011;5726;42.160;24.746;2024-03-08T01:58:17;31.37;;;16.80;;
11342;SDS011;5726;42.160;24.746;2024-03-08T02:00:47;29.23;;;17.30;;
11342;SDS011;5726;42.160;24.746;2024-03-08T02:03:16;29.47;;;17.20;;
11342;SDS011;5726;42.160;24.746;2024-03-08T02:05:42;31.53;;;18.53;;
11342;SDS011;5726;42.160;24.746;2024-03-08T02:08:11;36.40;;;19.63;;
11342;SDS011;5726;42.160;24.746;2024-03-08T02:10:40;33.07;;;17.77;;
11342;SDS011;5726;42.160;24.746;2024-03-08T02:13:07;32.20;;;17.90;;
11342;SDS011;5726;42.160;24.746;2024-03-08T02:18:17;27.23;;;16.00;;
11342;SDS011;5726;42.160;24.746;2024-03-08T02:20:44;31.17;;;17.17;;
11342;SDS011;5726;42.160;24.746;2024-03-08T02:23:12;27.97;;;16.73;;
11342;SDS011;5726;42.160;24.746;2024-03-08T02:25:39;29.30;;;16.97;;
11342;SDS011;5726;42.160;24.746;2024-03-08T02:28:04;27.13;;;16.90;;
11342;SDS011;5726;42.160;24.746;2024-03-08T02:30:30;30.37;;;17.97;;
11342;SDS011;5726;42.160;24.746;2024-03-08T02:32:55;32.70;;;17.97;;
11342;SDS011;5726;42.160;24.746;2024-03-08T02:35:21;32.97;;;18.33;;
11342;SDS011;5726;42.160;24.746;2024-03-08T02:37:47;33.70;;;17.67;;
11342;SDS011;5726;42.160;24.746;2024-03-08T02:40:13;29.23;;;18.17;;
11342;SDS011;5726;42.160;24.746;2024-03-08T02:42:39;29.13;;;17.47;;
11342;SDS011;5726;42.160;24.746;2024-03-08T02:45:05;29.17;;;17.93;;
11342;SDS011;5726;42.160;24.746;2024-03-08T02:47:31;29.70;;;17.00;;
11342;SDS011;5726;42.160;24.746;2024-03-08T02:49:57;29.00;;;17.80;;
11342;SDS011;5726;42.160;24.746;2024-03-08T02:52:22;28.73;;;16.50;;
11342;SDS011;5726;42.160;24.746;2024-03-08T02:54:48;26.13;;;16.20;;
11342;SDS011;5726;42.160;24.746;2024-03-08T02:57:15;27.60;;;15.90;;
11342;SDS011;5726;42.160;24.746;2024-03-08T02:59:41;24.37;;;14.23;;
11342;SDS011;5726;42.160;24.746;2024-03-08T03:02:07;28.83;;;15.07;;
11342;SDS011;5726;42.160;24.746;2024-03-08T03:04:32;23.37;;;13.93;;
11342;SDS011;5726;42.160;24.746;2024-03-08T03:07:01;26.47;;;15.27;;
11342;SDS011;5726;42.160;24.746;2024-03-08T03:09:26;24.03;;;14.70;;
11342;SDS011;5726;42.160;24.746;2024-03-08T03:11:56;26.93;;;15.43;;
11342;SDS011;5726;42.160;24.746;2024-03-08T03:14:21;28.07;;;15.93;;
11342;SDS011;5726;42.160;24.746;2024-03-08T03:16:47;26.37;;;15.83;;
11342;SDS011;5726;42.160;24.746;2024-03-08T03:19:13;29.53;;;16.87;;
11342;SDS011;5726;42.160;24.746;2024-03-08T03:21:40;29.80;;;16.30;;
11342;SDS011;5726;42.160;24.746;2024-03-08T03:24:08;23.80;;;14.87;;
11342;SDS011;5726;42.160;24.746;2024-03-08T03:26:40;27.73;;;16.93;;
11342;SDS011;5726;42.160;24.746;2024-03-08T03:29:06;31.80;;;17.87;;
11342;SDS011;5726;42.160;24.746;2024-03-08T03:31:33;28.43;;;16.93;;
11342;SDS011;5726;42.160;24.746;2024-03-08T03:33:59;30.57;;;18.80;;
11342;SDS011;5726;42.160;24.746;2024-03-08T03:36:28;29.93;;;17.83;;
11342;SDS011;5726;42.160;24.746;2024-03-08T03:38:56;32.83;;;18.17;;
11342;SDS011;5726;42.160;24.746;2024-03-08T03:41:36;33.40;;;18.27;;
11342;SDS011;5726;42.160;24.746;2024-03-08T03:44:01;36.20;;;19.50;;
11342;SDS011;5726;42.160;24.746;2024-03-08T03:46:27;34.67;;;19.23;;
11342;SDS011;5726;42.160;24.746;2024-03-08T03:48:56;34.57;;;19.03;;
11342;SDS011;5726;42.160;24.746;2024-03-08T03:51:21;38.20;;;19.50;;
11342;SDS011;5726;42.160;24.746;2024-03-08T03:53:47;35.10;;;19.50;;
11342;SDS011;5726;42.160;24.746;2024-03-08T03:56:13;33.17;;;18.53;;
11342;SDS011;5726;42.160;24.746;2024-03-08T03:58:39;33.53;;;20.17;;
11342;SDS011;5726;42.160;24.746;2024-03-08T04:01:05;37.33;;;19.30;;
11342;SDS011;5726;42.160;24.746;2024-03-08T04:03:30;35.50;;;20.77;;
11342;SDS011;5726;42.160;24.746;2024-03-08T04:05:56;36.17;;;20.33;;
11342;SDS011;5726;42.160;24.746;2024-03-08T04:08:22;32.40;;;18.90;;
11342;SDS011;5726;42.160;24.746;2024-03-08T04:10:49;38.90;;;20.27;;
11342;SDS011;5726;42.160;24.746;2024-03-08T04:13:16;30.63;;;18.10;;
11342;SDS011;5726;42.160;24.746;2024-03-08T04:15:41;37.43;;;21.13;;
11342;SDS011;5726;42.160;24.746;2024-03-08T04:18:09;31.80;;;17.70;;
11342;SDS011;5726;42.160;24.746;2024-03-08T04:20:35;33.40;;;19.80;;
11342;SDS011;5726;42.160;24.746;2024-03-08T04:23:01;35.60;;;19.97;;
11342;SDS011;5726;42.160;24.746;2024-03-08T04:25:27;38.33;;;20.47;;
11342;SDS011;5726;42.160;24.746;2024-03-08T04:27:52;37.40;;;21.30;;
11342;SDS011;5726;42.160;24.746;2024-03-08T04:30:18;34.17;;;20.07;;
11342;SDS011;5726;42.160;24.746;2024-03-08T04:32:43;35.60;;;20.07;;
11342;SDS011;5726;42.160;24.746;2024-03-08T04:35:09;34.77;;;20.40;;
11342;SDS011;5726;42.160;24.746;2024-03-08T04:37:35;35.73;;;18.97;;
11342;SDS011;5726;42.160;24.746;2024-03-08T04:40:00;36.20;;;19.87;;
11342;SDS011;5726;42.160;24.746;2024-03-08T04:42:29;35.37;;;19.53;;
11342;SDS011;5726;42.160;24.746;2024-03-08T04:44:57;35.70;;;21.17;;
11342;SDS011;5726;42.160;24.746;2024-03-08T04:47:23;36.03;;;19.77;;
11342;SDS011;5726;42.160;24.746;2024-03-08T04:49:49;34.27;;;19.73;;
11342;SDS011;5726;42.160;24.746;2024-03-08T04:52:15;35.83;;;19.63;;
11342;SDS011;5726;42.160;24.746;2024-03-08T04:54:41;34.30;;;18.53;;
11342;SDS011;5726;42.160;24.746;2024-03-08T04:57:08;31.80;;;17.87;;
11342;SDS011;5726;42.160;24.746;2024-03-08T04:59:33;26.43;;;16.03;;
11342;SDS011;5726;42.160;24.746;2024-03-08T05:01:59;34.53;;;19.17;;
11342;SDS011;5726;42.160;24.746;2024-03-08T05:04:24;36.43;;;20.83;;
11342;SDS011;5726;42.160;24.746;2024-03-08T05:06:50;39.40;;;20.23;;
11342;SDS011;5726;42.160;24.746;2024-03-08T05:09:15;35.73;;;20.00;;
11342;SDS011;5726;42.160;24.746;2024-03-08T05:11:45;31.67;;;19.63;;
11342;SDS011;5726;42.160;24.746;2024-03-08T05:14:11;34.77;;;19.37;;
11342;SDS011;5726;42.160;24.746;2024-03-08T05:16:41;39.70;;;20.37;;
11342;SDS011;5726;42.160;24.746;2024-03-08T05:19:14;33.60;;;20.00;;
11342;SDS011;5726;42.160;24.746;2024-03-08T05:21:42;38.13;;;19.87;;
11342;SDS011;5726;42.160;24.746;2024-03-08T05:24:11;44.80;;;22.37;;
11342;SDS011;5726;42.160;24.746;2024-03-08T05:26:38;42.40;;;23.73;;
11342;SDS011;5726;42.160;24.746;2024-03-08T05:29:03;41.27;;;20.87;;
11342;SDS011;5726;42.160;24.746;2024-03-08T05:31:29;38.03;;;20.73;;
11342;SDS011;5726;42.160;24.746;2024-03-08T05:34:01;34.67;;;20.30;;
11342;SDS011;5726;42.160;24.746;2024-03-08T05:36:27;39.87;;;21.37;;
11342;SDS011;5726;42.160;24.746;2024-03-08T05:38:52;42.37;;;21.40;;
11342;SDS011;5726;42.160;24.746;2024-03-08T05:41:19;46.43;;;25.17;;
11342;SDS011;5726;42.160;24.746;2024-03-08T05:43:45;63.10;;;33.60;;
11342;SDS011;5726;42.160;24.746;2024-03-08T05:46:10;45.77;;;24.03;;
11342;SDS011;5726;42.160;24.746;2024-03-08T05:48:36;43.17;;;22.43;;
11342;SDS011;5726;42.160;24.746;2024-03-08T05:51:02;38.30;;;21.83;;
11342;SDS011;5726;42.160;24.746;2024-03-08T05:53:28;34.63;;;20.83;;
11342;SDS011;5726;42.160;24.746;2024-03-08T05:55:57;39.53;;;20.53;;
11342;SDS011;5726;42.160;24.746;2024-03-08T05:58:23;41.83;;;20.80;;
11342;SDS011;5726;42.160;24.746;2024-03-08T06:00:49;43.53;;;22.03;;
11342;SDS011;5726;42.160;24.746;2024-03-08T06:03:15;38.07;;;21.67;;
11342;SDS011;5726;42.160;24.746;2024-03-08T06:05:40;57.30;;;31.73;;
11342;SDS011;5726;42.160;24.746;2024-03-08T06:08:07;42.77;;;23.27;;
11342;SDS011;5726;42.160;24.746;2024-03-08T06:10:33;43.33;;;24.40;;
11342;SDS011;5726;42.160;24.746;2024-03-08T06:12:58;39.60;;;22.07;;
11342;SDS011;5726;42.160;24.746;2024-03-08T06:15:25;39.47;;;21.77;;
11342;SDS011;5726;42.160;24.746;2024-03-08T06:17:50;46.50;;;24.73;;
11342;SDS011;5726;42.160;24.746;2024-03-08T06:20:18;37.50;;;21.07;;
11342;SDS011;5726;42.160;24.746;2024-03-08T06:22:43;41.90;;;22.57;;
11342;SDS011;5726;42.160;24.746;2024-03-08T06:25:13;39.87;;;21.13;;
11342;SDS011;5726;42.160;24.746;2024-03-08T06:27:41;35.40;;;21.90;;
11342;SDS011;5726;42.160;24.746;2024-03-08T06:30:11;39.23;;;21.77;;
11342;SDS011;5726;42.160;24.746;2024-03-08T06:32:38;40.90;;;21.80;;
11342;SDS011;5726;42.160;24.746;2024-03-08T06:35:04;34.87;;;20.43;;
11342;SDS011;5726;42.160;24.746;2024-03-08T06:37:34;43.93;;;21.23;;
11342;SDS011;5726;42.160;24.746;2024-03-08T06:39:59;41.40;;;22.10;;
11342;SDS011;5726;42.160;24.746;2024-03-08T06:42:26;35.70;;;20.97;;
11342;SDS011;5726;42.160;24.746;2024-03-08T06:44:52;46.90;;;21.77;;
11342;SDS011;5726;42.160;24.746;2024-03-08T06:47:22;42.83;;;21.23;;
11342;SDS011;5726;42.160;24.746;2024-03-08T06:49:50;85.33;;;45.23;;
11342;SDS011;5726;42.160;24.746;2024-03-08T06:52:17;43.00;;;23.97;;
11342;SDS011;5726;42.160;24.746;2024-03-08T06:54:42;40.13;;;21.40;;
11342;SDS011;5726;42.160;24.746;2024-03-08T06:57:08;37.50;;;20.47;;
11342;SDS011;5726;42.160;24.746;2024-03-08T06:59:35;42.37;;;20.67;;
11342;SDS011;5726;42.160;24.746;2024-03-08T07:02:01;36.30;;;20.63;;
11342;SDS011;5726;42.160;24.746;2024-03-08T07:04:27;41.43;;;21.20;;
11342;SDS011;5726;42.160;24.746;2024-03-08T07:06:55;43.07;;;22.47;;
11342;SDS011;5726;42.160;24.746;2024-03-08T07:09:21;42.17;;;22.27;;
11342;SDS011;5726;42.160;24.746;2024-03-08T07:11:46;39.63;;;21.27;;
11342;SDS011;5726;42.160;24.746;2024-03-08T07:14:12;37.83;;;20.83;;
11342;SDS011;5726;42.160;24.746;2024-03-08T07:16:40;38.00;;;21.23;;
11342;SDS011;5726;42.160;24.746;2024-03-08T07:19:06;45.50;;;22.83;;
11342;SDS011;5726;42.160;24.746;2024-03-08T07:21:32;41.73;;;24.13;;
11342;SDS011;5726;42.160;24.746;2024-03-08T07:23:57;40.87;;;22.43;;
11342;SDS011;5726;42.160;24.746;2024-03-08T07:26:26;37.00;;;20.13;;
11342;SDS011;5726;42.160;24.746;2024-03-08T07:28:52;45.17;;;21.73;;
11342;SDS011;5726;42.160;24.746;2024-03-08T07:31:20;40.60;;;22.30;;
11342;SDS011;5726;42.160;24.746;2024-03-08T07:34:00;46.33;;;21.60;;
11342;SDS011;5726;42.160;24.746;2024-03-08T07:36:26;76.10;;;42.73;;
11342;SDS011;5726;42.160;24.746;2024-03-08T07:38:51;70.23;;;38.40;;
11342;SDS011;5726;42.160;24.746;2024-03-08T07:41:17;45.23;;;25.87;;
11342;SDS011;5726;42.160;24.746;2024-03-08T07:43:42;39.77;;;21.77;;
11342;SDS011;5726;42.160;24.746;2024-03-08T07:46:09;40.67;;;22.33;;
11342;SDS011;5726;42.160;24.746;2024-03-08T07:48:35;38.17;;;20.80;;
11342;SDS011;5726;42.160;24.746;2024-03-08T07:51:01;38.43;;;20.83;;
11342;SDS011;5726;42.160;24.746;2024-03-08T07:53:30;36.47;;;20.97;;
11342;SDS011;5726;42.160;24.746;2024-03-08T07:55:56;36.97;;;20.60;;
11342;SDS011;5726;42.160;24.746;2024-03-08T07:58:22;35.30;;;21.10;;
11342;SDS011;5726;42.160;24.746;2024-03-08T08:00:48;41.50;;;21.33;;
11342;SDS011;5726;42.160;24.746;2024-03-08T08:03:14;31.10;;;19.60;;
11342;SDS011;5726;42.160;24.746;2024-03-08T08:05:41;42.57;;;20.93;;
11342;SDS011;5726;42.160;24.746;2024-03-08T08:08:10;37.70;;;21.50;;
11342;SDS011;5726;42.160;24.746;2024-03-08T08:10:35;38.63;;;20.60;;
11342;SDS011;5726;42.160;24.746;2024-03-08T08:13:02;33.20;;;18.93;;
11342;SDS011;5726;42.160;24.746;2024-03-08T08:15:29;35.50;;;19.73;;
11342;SDS011;5726;42.160;24.746;2024-03-08T08:17:55;35.40;;;20.23;;
11342;SDS011;5726;42.160;24.746;2024-03-08T08:20:21;31.87;;;19.23;;
11342;SDS011;5726;42.160;24.746;2024-03-08T08:22:48;38.13;;;20.40;;
11342;SDS011;5726;42.160;24.746;2024-03-08T08:25:13;37.07;;;20.10;;
11342;SDS011;5726;42.160;24.746;2024-03-08T08:27:45;40.13;;;19.70;;
11342;SDS011;5726;42.160;24.746;2024-03-08T08:30:11;33.10;;;20.07;;
11342;SDS011;5726;42.160;24.746;2024-03-08T08:32:38;36.77;;;19.70;;
11342;SDS011;5726;42.160;24.746;2024-03-08T08:35:09;36.77;;;19.33;;
11342;SDS011;5726;42.160;24.746;2024-03-08T08:37:40;32.77;;;17.33;;
11342;SDS011;5726;42.160;24.746;2024-03-08T08:40:06;27.77;;;17.73;;
11342;SDS011;5726;42.160;24.746;2024-03-08T08:42:39;33.90;;;17.60;;
11342;SDS011;5726;42.160;24.746;2024-03-08T08:45:06;31.20;;;17.90;;
11342;SDS011;5726;42.160;24.746;2024-03-08T08:47:35;30.60;;;17.73;;
11342;SDS011;5726;42.160;24.746;2024-03-08T08:50:01;33.97;;;18.53;;
11342;SDS011;5726;42.160;24.746;2024-03-08T08:52:27;35.13;;;18.63;;
11342;SDS011;5726;42.160;24.746;2024-03-08T08:54:54;32.50;;;17.97;;
11342;SDS011;5726;42.160;24.746;2024-03-08T08:57:20;35.10;;;18.70;;
11342;SDS011;5726;42.160;24.746;2024-03-08T08:59:45;30.23;;;17.03;;
11342;SDS011;5726;42.160;24.746;2024-03-08T09:02:11;28.00;;;17.93;;
11342;SDS011;5726;42.160;24.746;2024-03-08T09:04:38;29.17;;;17.33;;
11342;SDS011;5726;42.160;24.746;2024-03-08T09:07:03;34.10;;;18.27;;
11342;SDS011;5726;42.160;24.746;2024-03-08T09:09:31;35.10;;;18.53;;
11342;SDS011;5726;42.160;24.746;2024-03-08T09:11:57;32.63;;;17.60;;
11342;SDS011;5726;42.160;24.746;2024-03-08T09:14:23;30.50;;;19.33;;
11342;SDS011;5726;42.160;24.746;2024-03-08T09:16:51;31.83;;;15.73;;
11342;SDS011;5726;42.160;24.746;2024-03-08T09:19:16;28.10;;;16.47;;
11342;SDS011;5726;42.160;24.746;2024-03-08T09:21:44;30.67;;;17.57;;
11342;SDS011;5726;42.160;24.746;2024-03-08T09:24:10;28.67;;;16.33;;
11342;SDS011;5726;42.160;24.746;2024-03-08T09:26:35;30.17;;;16.30;;
11342;SDS011;5726;42.160;24.746;2024-03-08T09:29:02;28.13;;;15.93;;
11342;SDS011;5726;42.160;24.746;2024-03-08T09:31:27;28.30;;;17.57;;
11342;SDS011;5726;42.160;24.746;2024-03-08T09:33:53;26.93;;;16.30;;
11342;SDS011;5726;42.160;24.746;2024-03-08T09:36:19;29.33;;;15.40;;
11342;SDS011;5726;42.160;24.746;2024-03-08T09:38:45;31.93;;;15.57;;
11342;SDS011;5726;42.160;24.746;2024-03-08T09:41:10;26.33;;;15.43;;
11342;SDS011;5726;42.160;24.746;2024-03-08T09:43:37;28.43;;;16.40;;
11342;SDS011;5726;42.160;24.746;2024-03-08T09:46:03;25.07;;;15.50;;
11342;SDS011;5726;42.160;24.746;2024-03-08T09:48:31;29.57;;;17.23;;
11342;SDS011;5726;42.160;24.746;2024-03-08T09:50:57;26.07;;;15.33;;
11342;SDS011;5726;42.160;24.746;2024-03-08T09:53:23;23.87;;;13.33;;
11342;SDS011;5726;42.160;24.746;2024-03-08T09:55:49;21.70;;;14.27;;
11342;SDS011;5726;42.160;24.746;2024-03-08T09:58:15;24.40;;;13.40;;
11342;SDS011;5726;42.160;24.746;2024-03-08T10:00:47;24.70;;;14.77;;
11342;SDS011;5726;42.160;24.746;2024-03-08T10:03:13;27.10;;;14.77;;
11342;SDS011;5726;42.160;24.746;2024-03-08T10:05:41;24.90;;;14.47;;
11342;SDS011;5726;42.160;24.746;2024-03-08T10:08:09;32.03;;;18.37;;
11342;SDS011;5726;42.160;24.746;2024-03-08T10:10:36;33.40;;;19.07;;
11342;SDS011;5726;42.160;24.746;2024-03-08T10:13:05;31.83;;;18.70;;
11342;SDS011;5726;42.160;24.746;2024-03-08T10:15:31;26.40;;;15.60;;
11342;SDS011;5726;42.160;24.746;2024-03-08T10:18:00;27.20;;;15.17;;
11342;SDS011;5726;42.160;24.746;2024-03-08T10:20:27;27.37;;;15.73;;
11342;SDS011;5726;42.160;24.746;2024-03-08T10:22:58;26.00;;;14.17;;
11342;SDS011;5726;42.160;24.746;2024-03-08T10:25:25;24.80;;;15.47;;
11342;SDS011;5726;42.160;24.746;2024-03-08T10:27:50;23.30;;;13.87;;
11342;SDS011;5726;42.160;24.746;2024-03-08T10:30:16;22.67;;;13.13;;
11342;SDS011;5726;42.160;24.746;2024-03-08T10:32:46;24.50;;;13.40;;
11342;SDS011;5726;42.160;24.746;2024-03-08T10:35:13;23.10;;;13.50;;
11342;SDS011;5726;42.160;24.746;2024-03-08T10:37:44;31.13;;;16.63;;
11342;SDS011;5726;42.160;24.746;2024-03-08T10:40:18;62.37;;;33.13;;
11342;SDS011;5726;42.160;24.746;2024-03-08T10:43:06;29.47;;;17.43;;
11342;SDS011;5726;42.160;24.746;2024-03-08T10:45:35;26.10;;;15.63;;
11342;SDS011;5726;42.160;24.746;2024-03-08T10:50:36;28.63;;;15.00;;
11342;SDS011;5726;42.160;24.746;2024-03-08T10:53:03;24.10;;;14.20;;
11342;SDS011;5726;42.160;24.746;2024-03-08T10:58:19;32.07;;;15.97;;
11342;SDS011;5726;42.160;24.746;2024-03-08T11:00:46;26.60;;;14.40;;
11342;SDS011;5726;42.160;24.746;2024-03-08T11:06:08;21.63;;;12.83;;
11342;SDS011;5726;42.160;24.746;2024-03-08T11:08:43;26.60;;;12.87;;
11342;SDS011;5726;42.160;24.746;2024-03-08T11:13:58;23.70;;;13.40;;
11342;SDS011;5726;42.160;24.746;2024-03-08T11:18:53;21.07;;;12.90;;
11342;SDS011;5726;42.160;24.746;2024-03-08T11:21:20;26.53;;;13.77;;
11342;SDS011;5726;42.160;24.746;2024-03-08T11:24:01;25.17;;;13.27;;
11342;SDS011;5726;42.160;24.746;2024-03-08T11:26:30;22.50;;;13.83;;
11342;SDS011;5726;42.160;24.746;2024-03-08T11:29:32;20.80;;;13.33;;
11342;SDS011;5726;42.160;24.746;2024-03-08T11:34:36;20.37;;;12.17;;
11342;SDS011;5726;42.160;24.746;2024-03-08T11:37:17;21.63;;;12.73;;
11342;SDS011;5726;42.160;24.746;2024-03-08T11:42:24;17.73;;;10.50;;
11342;SDS011;5726;42.160;24.746;2024-03-08T11:44:53;13.47;;;9.10;;
11342;SDS011;5726;42.160;24.746;2024-03-08T11:47:20;15.40;;;9.67;;
11342;SDS011;5726;42.160;24.746;2024-03-08T11:49:46;19.03;;;10.73;;
11342;SDS011;5726;42.160;24.746;2024-03-08T11:52:14;15.33;;;9.13;;
11342;SDS011;5726;42.160;24.746;2024-03-08T11:54:41;12.97;;;8.27;;
11342;SDS011;5726;42.160;24.746;2024-03-08T11:57:08;14.57;;;8.77;;
11342;SDS011;5726;42.160;24.746;2024-03-08T11:59:35;12.53;;;8.33;;
11342;SDS011;5726;42.160;24.746;2024-03-08T12:02:02;13.40;;;9.27;;
11342;SDS011;5726;42.160;24.746;2024-03-08T12:04:29;18.57;;;10.77;;
11342;SDS011;5726;42.160;24.746;2024-03-08T12:06:57;18.33;;;11.40;;
11342;SDS011;5726;42.160;24.746;2024-03-08T12:09:26;18.73;;;12.03;;
11342;SDS011;5726;42.160;24.746;2024-03-08T12:11:51;20.00;;;12.23;;
11342;SDS011;5726;42.160;24.746;2024-03-08T12:14:17;21.17;;;11.67;;
11342;SDS011;5726;42.160;24.746;2024-03-08T12:16:43;19.20;;;11.37;;
11342;SDS011;5726;42.160;24.746;2024-03-08T12:19:09;18.57;;;11.50;;
11342;SDS011;5726;42.160;24.746;2024-03-08T12:21:35;21.73;;;12.33;;
11342;SDS011;5726;42.160;24.746;2024-03-08T12:24:05;19.83;;;11.27;;
11342;SDS011;5726;42.160;24.746;2024-03-08T12:26:36;19.63;;;12.03;;
11342;SDS011;5726;42.160;24.746;2024-03-08T12:31:47;17.03;;;11.40;;
11342;SDS011;5726;42.160;24.746;2024-03-08T12:34:17;20.60;;;12.90;;
11342;SDS011;5726;42.160;24.746;2024-03-08T12:36:46;17.50;;;11.10;;
11342;SDS011;5726;42.160;24.746;2024-03-08T12:39:13;20.50;;;11.90;;
11342;SDS011;5726;42.160;24.746;2024-03-08T12:41:41;20.60;;;11.57;;
11342;SDS011;5726;42.160;24.746;2024-03-08T12:44:07;17.03;;;10.73;;
11342;SDS011;5726;42.160;24.746;2024-03-08T12:46:36;17.20;;;11.10;;
11342;SDS011;5726;42.160;24.746;2024-03-08T12:49:08;20.50;;;10.50;;
11342;SDS011;5726;42.160;24.746;2024-03-08T12:51:34;19.13;;;10.40;;
11342;SDS011;5726;42.160;24.746;2024-03-08T12:54:00;13.80;;;9.67;;
11342;SDS011;5726;42.160;24.746;2024-03-08T12:56:30;16.53;;;10.07;;
11342;SDS011;5726;42.160;24.746;2024-03-08T12:58:57;16.07;;;8.93;;
11342;SDS011;5726;42.160;24.746;2024-03-08T13:01:23;15.33;;;9.43;;
11342;SDS011;5726;42.160;24.746;2024-03-08T13:03:49;16.47;;;9.70;;
11342;SDS011;5726;42.160;24.746;2024-03-08T13:06:15;12.40;;;8.40;;
11342;SDS011;5726;42.160;24.746;2024-03-08T13:08:41;12.73;;;7.73;;
11342;SDS011;5726;42.160;24.746;2024-03-08T13:11:09;13.77;;;8.50;;
11342;SDS011;5726;42.160;24.746;2024-03-08T13:13:39;13.07;;;7.77;;
11342;SDS011;5726;42.160;24.746;2024-03-08T13:16:05;14.53;;;9.07;;
11342;SDS011;5726;42.160;24.746;2024-03-08T13:18:37;15.27;;;8.47;;
11342;SDS011;5726;42.160;24.746;2024-03-08T13:21:03;10.77;;;7.57;;
11342;SDS011;5726;42.160;24.746;2024-03-08T13:23:33;12.00;;;8.10;;
11342;SDS011;5726;42.160;24.746;2024-03-08T13:26:08;11.77;;;7.50;;
11342;SDS011;5726;42.160;24.746;2024-03-08T13:28:37;11.63;;;7.93;;
11342;SDS011;5726;42.160;24.746;2024-03-08T13:31:05;11.70;;;7.40;;
11342;SDS011;5726;42.160;24.746;2024-03-08T13:33:37;12.07;;;8.17;;
11342;SDS011;5726;42.160;24.746;2024-03-08T13:36:07;12.40;;;7.73;;
11342;SDS011;5726;42.160;24.746;2024-03-08T13:38:43;9.10;;;6.80;;
11342;SDS011;5726;42.160;24.746;2024-03-08T13:41:13;10.53;;;6.90;;
11342;SDS011;5726;42.160;24.746;2024-03-08T13:43:48;13.97;;;7.77;;
11342;SDS011;5726;42.160;24.746;2024-03-08T13:46:17;12.67;;;7.60;;
11342;SDS011;5726;42.160;24.746;2024-03-08T13:48:43;10.73;;;7.33;;
11342;SDS011;5726;42.160;24.746;2024-03-08T13:51:08;12.07;;;6.80;;
11342;SDS011;5726;42.160;24.746;2024-03-08T13:53:40;10.50;;;7.17;;
11342;SDS011;5726;42.160;24.746;2024-03-08T13:56:06;8.53;;;6.27;;
11342;SDS011;5726;42.160;24.746;2024-03-08T13:58:33;12.70;;;6.77;;
11342;SDS011;5726;42.160;24.746;2024-03-08T14:01:00;11.17;;;7.47;;
11342;SDS011;5726;42.160;24.746;2024-03-08T14:03:28;11.80;;;7.77;;
11342;SDS011;5726;42.160;24.746;2024-03-08T14:05:54;13.27;;;8.30;;
11342;SDS011;5726;42.160;24.746;2024-03-08T14:08:20;13.90;;;7.50;;
11342;SDS011;5726;42.160;24.746;2024-03-08T14:10:47;11.80;;;7.33;;
11342;SDS011;5726;42.160;24.746;2024-03-08T14:13:14;11.17;;;7.47;;
11342;SDS011;5726;42.160;24.746;2024-03-08T14:15:41;10.63;;;7.40;;
11342;SDS011;5726;42.160;24.746;2024-03-08T14:18:07;12.93;;;7.67;;
11342;SDS011;5726;42.160;24.746;2024-03-08T14:20:33;12.40;;;7.33;;
11342;SDS011;5726;42.160;24.746;2024-03-08T14:22:58;9.00;;;7.27;;
11342;SDS011;5726;42.160;24.746;2024-03-08T14:25:24;11.83;;;7.13;;
11342;SDS011;5726;42.160;24.746;2024-03-08T14:27:50;9.90;;;7.20;;
11342;SDS011;5726;42.160;24.746;2024-03-08T14:30:23;9.83;;;6.87;;
11342;SDS011;5726;42.160;24.746;2024-03-08T14:33:00;10.37;;;7.13;;
11342;SDS011;5726;42.160;24.746;2024-03-08T14:35:37;10.93;;;7.53;;
11342;SDS011;5726;42.160;24.746;2024-03-08T14:38:03;11.93;;;7.80;;
11342;SDS011;5726;42.160;24.746;2024-03-08T14:40:29;13.67;;;7.53;;
11342;SDS011;5726;42.160;24.746;2024-03-08T14:42:55;11.27;;;7.97;;
11342;SDS011;5726;42.160;24.746;2024-03-08T14:45:21;14.13;;;8.50;;
11342;SDS011;5726;42.160;24.746;2024-03-08T14:47:49;13.50;;;7.70;;
11342;SDS011;5726;42.160;24.746;2024-03-08T14:50:18;12.23;;;7.07;;